EmailTwitter


Observations de surface / Europe / LIRF (16242)

Régions: Québec | Canada | États-Unis | Europe | France | UK | Ailleurs
Station
Affichage
Infos & localisation pour LIRF (16242) | Aide pour décoder les METARs

Observations prises le 2017-10-23 à 00H20 UTC (LIRF)

Etat du ciel: quelques nuages.

Température: 18.0 Celsius

Point de rosée: 11.0 Celsius

Humidité relative: 64%

Vents: Nord-ouest à 26 km/h ou 14 noeuds.

Pression au niveau moyen de la mer: 100.90 kilopascals.

Visibilité horizontale: 6.21 milles terrestres ou 9.94 kilomètres.

Observation METAR:

LIRF 230020Z 31014KT 9999 FEW045 18/11 Q1009 NOSIG=